createdAt,value
2019-04-30T00:00:21.095Z,1015.47
2019-04-30T00:01:20.841Z,1015.42
2019-04-30T00:03:17.984Z,1015.48
2019-04-30T00:04:15.651Z,1015.46
2019-04-30T00:06:07.577Z,1015.40
2019-04-30T00:07:10.257Z,1015.43
2019-04-30T00:09:00.431Z,1015.37
2019-04-30T00:10:00.471Z,1015.38
2019-04-30T00:12:10.943Z,1015.34
2019-04-30T00:13:14.853Z,1015.33
2019-04-30T00:15:06.110Z,1015.31
2019-04-30T00:16:05.337Z,1015.28
2019-04-30T00:18:01.327Z,1015.30
2019-04-30T00:19:00.485Z,1015.30
2019-04-30T00:20:50.514Z,1015.32
2019-04-30T00:21:56.860Z,1015.32
2019-04-30T00:23:43.673Z,1015.28
2019-04-30T00:24:46.766Z,1015.26
2019-04-30T00:26:39.898Z,1015.25
2019-04-30T00:27:36.847Z,1015.23
2019-04-30T00:29:31.052Z,1015.24
2019-04-30T00:30:30.036Z,1015.23
2019-04-30T00:32:23.201Z,1015.19
2019-04-30T00:33:25.282Z,1015.12
2019-04-30T00:35:19.539Z,1015.15
2019-04-30T00:36:17.354Z,1015.12
2019-04-30T00:38:09.586Z,1015.16
2019-04-30T00:39:13.356Z,1015.16
2019-04-30T00:41:06.877Z,1015.15
2019-04-30T00:42:02.746Z,1015.17
2019-04-30T00:43:56.036Z,1015.13
2019-04-30T00:44:59.630Z,1015.11
2019-04-30T00:46:49.503Z,1015.12
2019-04-30T00:47:49.171Z,1015.13
2019-04-30T00:49:42.370Z,1015.06
2019-04-30T00:50:42.406Z,1015.08
2019-04-30T00:52:52.930Z,1015.06
2019-04-30T00:53:52.948Z,1015.09
2019-04-30T00:55:48.369Z,1015.07
2019-04-30T00:56:46.178Z,1015.08
2019-04-30T00:58:39.330Z,1015.09
2019-04-30T00:59:39.689Z,1015.09
2019-04-30T01:01:32.552Z,1015.04
2019-04-30T01:02:32.561Z,1015.06
2019-04-30T01:04:28.149Z,1015.09
2019-04-30T01:05:27.117Z,1015.06
2019-04-30T01:07:18.884Z,1014.97
2019-04-30T01:08:21.130Z,1014.99
2019-04-30T01:10:12.337Z,1015.04
2019-04-30T01:11:12.302Z,1015.04
2019-04-30T01:13:08.071Z,1015.04
2019-04-30T01:14:05.509Z,1015.02
2019-04-30T01:15:58.847Z,1014.99
2019-04-30T01:16:59.396Z,1015.03
2019-04-30T01:18:51.819Z,1015.03
2019-04-30T01:19:54.481Z,1015.06
2019-04-30T01:21:47.122Z,1015.07
2019-04-30T01:22:44.979Z,1015.07
2019-04-30T01:24:38.683Z,1015.03
2019-04-30T01:25:38.873Z,1015.05
2019-04-30T01:27:31.332Z,1015.02
2019-04-30T01:28:31.344Z,1015.00
2019-04-30T01:30:24.559Z,1015.02
2019-04-30T01:31:24.573Z,1015.00
2019-04-30T01:33:19.180Z,1015.01
2019-04-30T01:34:19.605Z,1015.02
2019-04-30T01:36:13.364Z,1015.02
2019-04-30T01:37:10.923Z,1015.04
2019-04-30T01:39:04.116Z,1014.99
2019-04-30T01:40:10.648Z,1014.96
2019-04-30T01:41:58.697Z,1014.97
2019-04-30T01:42:59.206Z,1014.97
2019-04-30T01:44:53.590Z,1014.96
2019-04-30T01:45:50.508Z,1014.98
2019-04-30T01:47:43.671Z,1014.95
2019-04-30T01:48:47.994Z,1014.94
2019-04-30T01:50:38.718Z,1015.01
2019-04-30T01:51:38.641Z,1015.01
2019-04-30T01:53:30.022Z,1015.02
2019-04-30T01:54:30.049Z,1014.98
2019-04-30T01:56:23.221Z,1015.00
2019-04-30T01:57:23.203Z,1015.00
2019-04-30T01:59:16.451Z,1014.99
2019-04-30T02:00:16.475Z,1014.96
2019-04-30T02:02:09.627Z,1014.96
2019-04-30T02:03:11.185Z,1014.98
2019-04-30T02:05:02.881Z,1015.00
2019-04-30T02:06:02.837Z,1014.97
2019-04-30T02:07:56.023Z,1014.96
2019-04-30T02:08:56.033Z,1014.96
2019-04-30T02:10:51.388Z,1014.95
2019-04-30T02:11:49.220Z,1014.99
2019-04-30T02:13:42.395Z,1015.01
2019-04-30T02:14:42.429Z,1014.98
2019-04-30T02:16:35.588Z,1014.96
2019-04-30T02:17:35.591Z,1014.97
2019-04-30T02:19:31.038Z,1014.98
2019-04-30T02:20:28.914Z,1015.00
2019-04-30T02:22:21.931Z,1015.04
2019-04-30T02:23:21.936Z,1015.05
2019-04-30T02:25:15.419Z,1015.04
2019-04-30T02:26:15.146Z,1015.04
2019-04-30T02:28:08.969Z,1015.01
2019-04-30T02:29:09.164Z,1015.02
2019-04-30T02:31:01.542Z,1015.03
2019-04-30T02:32:01.545Z,1015.02
2019-04-30T02:33:54.748Z,1015.01
2019-04-30T02:34:54.756Z,1014.99
2019-04-30T02:36:49.964Z,1015.05
2019-04-30T02:37:50.541Z,1015.02
2019-04-30T02:39:41.065Z,1015.08
2019-04-30T02:40:42.682Z,1015.03
2019-04-30T02:42:34.289Z,1015.05
2019-04-30T02:43:34.300Z,1015.01
2019-04-30T02:45:29.859Z,1015.06
2019-04-30T02:46:31.922Z,1015.01
2019-04-30T02:48:20.652Z,1015.04
2019-04-30T02:49:20.722Z,1015.01
2019-04-30T02:51:13.822Z,1015.01
2019-04-30T02:52:13.827Z,1015.01
2019-04-30T02:54:09.545Z,1015.00
2019-04-30T02:55:09.450Z,1015.08
2019-04-30T02:57:15.607Z,1015.07
2019-04-30T02:58:15.569Z,1015.07
2019-04-30T03:00:09.947Z,1015.07
2019-04-30T03:01:10.282Z,1015.09
2019-04-30T03:03:02.058Z,1015.10
2019-04-30T03:04:01.994Z,1015.10
2019-04-30T03:05:55.121Z,1015.10
2019-04-30T03:06:55.149Z,1015.08
2019-04-30T03:08:51.111Z,1015.13
2019-04-30T03:09:49.984Z,1015.14
2019-04-30T03:11:41.518Z,1015.15
2019-04-30T03:12:41.503Z,1015.15
2019-04-30T03:14:34.663Z,1015.14
2019-04-30T03:15:34.681Z,1015.17
2019-04-30T03:17:29.392Z,1015.20
2019-04-30T03:18:30.236Z,1015.24
2019-04-30T03:20:34.705Z,1015.22
2019-04-30T03:21:21.098Z,1015.23
2019-04-30T03:23:14.353Z,1015.24
2019-04-30T03:24:14.317Z,1015.26
2019-04-30T03:26:09.669Z,1015.19
2019-04-30T03:27:09.653Z,1015.17
2019-04-30T03:29:23.484Z,1015.25
2019-04-30T03:30:21.906Z,1015.24
2019-04-30T03:32:13.418Z,1015.26
2019-04-30T03:33:12.648Z,1015.20
2019-04-30T03:35:04.414Z,1015.26
2019-04-30T03:36:04.420Z,1015.29
2019-04-30T03:37:59.207Z,1015.29
2019-04-30T03:39:00.001Z,1015.32
2019-04-30T03:40:50.721Z,1015.33
2019-04-30T03:41:50.744Z,1015.31
2019-04-30T03:43:44.046Z,1015.29
2019-04-30T03:44:44.056Z,1015.28
2019-04-30T03:46:39.811Z,1015.28
2019-04-30T03:47:40.317Z,1015.28
2019-04-30T03:49:31.499Z,1015.31
2019-04-30T03:50:48.287Z,1015.26
2019-04-30T03:52:23.576Z,1015.29
2019-04-30T03:53:23.600Z,1015.32
2019-04-30T03:55:16.791Z,1015.35
2019-04-30T03:56:22.407Z,1015.32
2019-04-30T03:58:10.308Z,1015.32
2019-04-30T03:59:10.835Z,1015.35
2019-04-30T04:01:03.152Z,1015.37
2019-04-30T04:02:03.142Z,1015.37
2019-04-30T04:03:56.331Z,1015.36
2019-04-30T04:04:56.325Z,1015.35
2019-04-30T04:06:49.495Z,1015.43
2019-04-30T04:07:52.932Z,1015.42
2019-04-30T04:09:42.730Z,1015.47
2019-04-30T04:10:42.669Z,1015.44
2019-04-30T04:12:35.801Z,1015.48
2019-04-30T04:13:35.840Z,1015.49
2019-04-30T04:15:29.892Z,1015.52
2019-04-30T04:16:32.127Z,1015.50
2019-04-30T04:18:22.166Z,1015.49
2019-04-30T04:19:22.161Z,1015.55
2019-04-30T04:21:16.965Z,1015.53
2019-04-30T04:22:15.308Z,1015.54
2019-04-30T04:24:10.636Z,1015.55
2019-04-30T04:25:12.688Z,1015.51
2019-04-30T04:27:01.683Z,1015.54
2019-04-30T04:28:01.670Z,1015.53
2019-04-30T04:29:54.833Z,1015.54
2019-04-30T04:30:54.834Z,1015.57
2019-04-30T04:32:50.115Z,1015.58
2019-04-30T04:33:49.662Z,1015.62
2019-04-30T04:35:41.154Z,1015.60
2019-04-30T04:36:43.510Z,1015.61
2019-04-30T04:38:34.485Z,1015.62
2019-04-30T04:39:34.469Z,1015.66
2019-04-30T04:41:29.572Z,1015.63
2019-04-30T04:42:30.009Z,1015.60
2019-04-30T04:44:21.108Z,1015.62
2019-04-30T04:45:21.008Z,1015.66
2019-04-30T04:47:16.134Z,1015.68
2019-04-30T04:48:14.056Z,1015.67
2019-04-30T04:50:10.017Z,1015.66
2019-04-30T04:51:10.861Z,1015.66
2019-04-30T04:53:00.462Z,1015.69
2019-04-30T04:54:03.201Z,1015.72
2019-04-30T04:56:12.230Z,1015.66
2019-04-30T04:57:17.915Z,1015.69
2019-04-30T04:59:05.500Z,1015.67
2019-04-30T05:00:07.559Z,1015.65
2019-04-30T05:02:16.006Z,1015.69
2019-04-30T05:03:16.024Z,1015.69
2019-04-30T05:05:09.773Z,1015.70
2019-04-30T05:06:11.549Z,1015.72
2019-04-30T05:08:02.488Z,1015.71
2019-04-30T05:09:02.522Z,1015.71
2019-04-30T05:10:55.698Z,1015.68
2019-04-30T05:11:55.718Z,1015.69
2019-04-30T05:13:49.128Z,1015.74
2019-04-30T05:14:48.906Z,1015.75
2019-04-30T05:16:59.442Z,1015.72
2019-04-30T05:17:59.417Z,1015.76
2019-04-30T05:19:52.575Z,1015.78
2019-04-30T05:20:52.577Z,1015.83
2019-04-30T05:22:45.736Z,1015.83
2019-04-30T05:23:45.863Z,1015.79
2019-04-30T05:25:39.101Z,1015.82
2019-04-30T05:26:38.950Z,1015.82
2019-04-30T05:28:32.162Z,1015.81
2019-04-30T05:29:32.161Z,1015.82
2019-04-30T05:31:25.340Z,1015.83
2019-04-30T05:32:25.354Z,1015.87
2019-04-30T05:34:18.988Z,1015.90
2019-04-30T05:35:18.657Z,1015.92
2019-04-30T05:37:30.073Z,1015.89
2019-04-30T05:38:31.327Z,1015.91
2019-04-30T05:40:42.552Z,1015.94
2019-04-30T05:41:41.155Z,1015.92
2019-04-30T05:43:34.890Z,1015.86
2019-04-30T05:44:34.930Z,1015.86
2019-04-30T05:46:29.879Z,1015.93
2019-04-30T05:47:29.228Z,1015.87
2019-04-30T05:49:39.570Z,1015.87
2019-04-30T05:50:39.579Z,1015.91
2019-04-30T05:52:32.837Z,1015.90
2019-04-30T05:53:32.847Z,1015.86
2019-04-30T05:55:26.094Z,1015.84
2019-04-30T05:56:26.104Z,1015.88
2019-04-30T05:58:19.932Z,1015.88
2019-04-30T05:59:20.619Z,1015.89
2019-04-30T06:01:12.499Z,1015.89
2019-04-30T06:02:12.493Z,1015.83
2019-04-30T06:04:05.687Z,1015.85
2019-04-30T06:05:05.687Z,1015.83
2019-04-30T06:06:58.843Z,1015.87
2019-04-30T06:07:59.355Z,1015.85
2019-04-30T06:09:52.091Z,1015.92
2019-04-30T06:10:52.120Z,1015.87
2019-04-30T06:12:45.291Z,1015.89
2019-04-30T06:13:45.275Z,1015.89
2019-04-30T06:15:39.101Z,1015.83
2019-04-30T06:16:39.339Z,1015.86
2019-04-30T06:18:31.662Z,1015.89
2019-04-30T06:19:31.661Z,1015.86
2019-04-30T06:21:42.229Z,1015.92
2019-04-30T06:22:42.227Z,1015.90
2019-04-30T06:24:35.365Z,1015.93
2019-04-30T06:25:52.899Z,1015.97
2019-04-30T06:27:29.165Z,1015.98
2019-04-30T06:28:29.227Z,1015.98
2019-04-30T06:30:21.668Z,1015.95
2019-04-30T06:31:31.821Z,1016.01
2019-04-30T06:33:14.863Z,1015.97
2019-04-30T06:34:14.857Z,1016.01
2019-04-30T06:36:08.533Z,1015.95
2019-04-30T06:37:09.587Z,1016.00
2019-04-30T06:39:01.214Z,1015.99
2019-04-30T06:40:01.299Z,1015.99
2019-04-30T06:42:04.219Z,1015.96
2019-04-30T06:42:54.438Z,1016.01
2019-04-30T06:44:49.391Z,1015.95
2019-04-30T06:45:48.824Z,1015.96
2019-04-30T06:47:40.762Z,1015.98
2019-04-30T06:48:41.858Z,1015.97
2019-04-30T06:50:33.894Z,1015.98
2019-04-30T06:51:33.922Z,1015.96
2019-04-30T06:53:29.084Z,1016.01
2019-04-30T06:54:28.775Z,1015.97
2019-04-30T06:56:20.345Z,1015.99
2019-04-30T06:57:20.353Z,1015.98
2019-04-30T06:59:13.525Z,1016.04
2019-04-30T07:00:13.536Z,1016.03
2019-04-30T07:02:21.048Z,1016.01
2019-04-30T07:03:21.062Z,1016.03
2019-04-30T07:05:14.204Z,1016.02
2019-04-30T07:06:14.218Z,1016.02
2019-04-30T07:08:11.408Z,1016.04
2019-04-30T07:09:08.848Z,1016.05
2019-04-30T07:11:07.415Z,1016.00
2019-04-30T07:12:00.591Z,1016.01
2019-04-30T07:13:53.847Z,1016.01
2019-04-30T07:14:53.769Z,1016.04
2019-04-30T07:16:46.954Z,1015.98
2019-04-30T07:17:49.011Z,1016.03
2019-04-30T07:19:53.288Z,1015.98
2019-04-30T07:20:40.142Z,1015.94
2019-04-30T07:22:40.135Z,1015.96
2019-04-30T07:23:33.293Z,1015.99
2019-04-30T07:25:26.465Z,1016.00
2019-04-30T07:26:28.740Z,1015.98
2019-04-30T07:28:19.671Z,1015.94
2019-04-30T07:29:19.759Z,1015.90
2019-04-30T07:31:30.209Z,1015.96
2019-04-30T07:32:30.211Z,1015.92
2019-04-30T07:34:23.419Z,1015.91
2019-04-30T07:35:23.401Z,1015.91
2019-04-30T07:37:23.906Z,1015.96
2019-04-30T07:38:16.603Z,1015.88
2019-04-30T07:40:09.776Z,1015.94
2019-04-30T07:41:09.795Z,1015.94
2019-04-30T07:43:02.972Z,1015.92
2019-04-30T07:44:02.991Z,1015.92
2019-04-30T07:45:56.137Z,1015.94
2019-04-30T07:46:56.178Z,1015.97
2019-04-30T07:48:50.227Z,1016.03
2019-04-30T07:49:54.920Z,1016.02
2019-04-30T07:51:42.939Z,1015.96
2019-04-30T07:53:01.008Z,1016.00
2019-04-30T07:54:35.656Z,1016.01
2019-04-30T07:55:35.672Z,1016.02
2019-04-30T07:57:29.201Z,1016.01
2019-04-30T07:58:29.896Z,1015.98
2019-04-30T08:00:21.985Z,1015.97
2019-04-30T08:01:22.005Z,1015.95
2019-04-30T08:03:15.360Z,1015.93
2019-04-30T08:04:15.219Z,1015.94
2019-04-30T08:06:10.129Z,1015.96
2019-04-30T08:07:09.789Z,1015.96
2019-04-30T08:09:02.003Z,1016.01
2019-04-30T08:10:01.627Z,1016.04
2019-04-30T08:12:21.619Z,1016.02
2019-04-30T08:13:15.275Z,1016.00
2019-04-30T08:15:23.173Z,1016.01
2019-04-30T08:16:22.865Z,1016.02
2019-04-30T08:18:16.022Z,1016.07
2019-04-30T08:19:16.028Z,1016.07
2019-04-30T08:21:09.556Z,1016.15
2019-04-30T08:22:09.639Z,1016.14
2019-04-30T08:24:02.485Z,1016.09
2019-04-30T08:25:02.489Z,1016.12
2019-04-30T08:26:55.713Z,1016.16
2019-04-30T08:27:55.704Z,1016.17
2019-04-30T08:29:49.939Z,1016.15
2019-04-30T08:30:49.040Z,1016.16
2019-04-30T08:32:42.066Z,1016.17
2019-04-30T08:33:42.080Z,1016.18
2019-04-30T08:35:35.336Z,1016.14
2019-04-30T08:36:35.334Z,1016.13
2019-04-30T08:38:45.868Z,1016.09
2019-04-30T08:39:45.860Z,1016.09
2019-04-30T08:41:39.302Z,1016.11
2019-04-30T08:42:40.345Z,1016.09
2019-04-30T08:44:32.186Z,1016.06
2019-04-30T08:45:34.728Z,1016.05
2019-04-30T08:47:25.347Z,1016.10
2019-04-30T08:48:25.366Z,1016.07
2019-04-30T08:50:36.877Z,1016.04
2019-04-30T08:51:38.876Z,1016.01
2019-04-30T08:53:33.399Z,1016.02
2019-04-30T08:54:30.090Z,1015.94
2019-04-30T08:56:23.262Z,1015.97
2019-04-30T08:57:23.262Z,1015.98
2019-04-30T08:59:16.452Z,1015.98
2019-04-30T09:00:16.478Z,1016.02
2019-04-30T09:02:23.948Z,1016.03
2019-04-30T09:03:23.968Z,1016.00
2019-04-30T09:05:18.524Z,1016.03
2019-04-30T09:06:17.140Z,1016.01
2019-04-30T09:08:24.632Z,1015.99
2019-04-30T09:09:24.625Z,1015.95
2019-04-30T09:11:25.198Z,1015.91
2019-04-30T09:12:19.597Z,1015.95
2019-04-30T09:14:11.098Z,1015.90
2019-04-30T09:15:11.068Z,1015.88
2019-04-30T09:17:04.249Z,1015.90
2019-04-30T09:18:08.244Z,1015.87
2019-04-30T09:19:58.844Z,1015.85
2019-04-30T09:21:04.142Z,1015.82
2019-04-30T09:22:50.637Z,1015.80
2019-04-30T09:23:52.682Z,1015.81
2019-04-30T09:25:43.755Z,1015.85
2019-04-30T09:26:43.761Z,1015.88
2019-04-30T09:28:36.954Z,1015.85
2019-04-30T09:29:36.968Z,1015.88
2019-04-30T09:31:30.138Z,1015.91
2019-04-30T09:32:30.133Z,1015.92
2019-04-30T09:34:23.274Z,1015.98
2019-04-30T09:35:23.311Z,1016.08
2019-04-30T09:37:18.512Z,1016.09
2019-04-30T09:38:16.483Z,1015.94
2019-04-30T09:40:16.151Z,1016.04
2019-04-30T09:41:09.647Z,1016.01
2019-04-30T09:43:18.792Z,1015.97
2019-04-30T09:44:19.469Z,1016.00
2019-04-30T09:46:27.172Z,1016.01
2019-04-30T09:47:25.761Z,1016.10
2019-04-30T09:49:19.452Z,1016.07
2019-04-30T09:50:18.941Z,1016.02
2019-04-30T09:52:12.380Z,1016.00
2019-04-30T09:53:12.203Z,1015.96
2019-04-30T09:55:05.350Z,1015.94
2019-04-30T09:56:05.298Z,1015.94
2019-04-30T09:58:18.264Z,1016.07
2019-04-30T09:59:15.771Z,1016.11
2019-04-30T10:01:09.407Z,1015.93
2019-04-30T10:02:09.296Z,1015.95
2019-04-30T10:04:20.654Z,1015.98
2019-04-30T10:05:20.302Z,1016.02
2019-04-30T10:07:12.676Z,1015.98
2019-04-30T10:08:12.684Z,1016.01
2019-04-30T10:10:06.645Z,1016.06
2019-04-30T10:11:05.845Z,1016.07
2019-04-30T10:13:16.403Z,1015.98
2019-04-30T10:14:16.415Z,1015.98
2019-04-30T10:16:09.950Z,1015.95
2019-04-30T10:17:09.662Z,1015.94
2019-04-30T10:19:02.859Z,1015.91
2019-04-30T10:20:02.857Z,1015.84
2019-04-30T10:21:56.048Z,1015.87
2019-04-30T10:22:56.073Z,1015.85
2019-04-30T10:24:49.500Z,1015.82
2019-04-30T10:25:49.284Z,1015.84
2019-04-30T10:27:42.453Z,1015.84
2019-04-30T10:28:42.454Z,1015.79
2019-04-30T10:30:35.648Z,1015.79
2019-04-30T10:31:35.668Z,1015.77
2019-04-30T10:33:28.880Z,1015.75
2019-04-30T10:34:28.880Z,1015.80
2019-04-30T10:36:22.083Z,1015.79
2019-04-30T10:37:22.082Z,1015.81
2019-04-30T10:39:15.284Z,1015.54
2019-04-30T10:40:15.275Z,1015.18
2019-04-30T10:42:08.438Z,1015.77
2019-04-30T10:43:08.996Z,1015.81
2019-04-30T10:45:01.655Z,1015.80
2019-04-30T10:46:01.673Z,1015.82
2019-04-30T10:47:54.926Z,1015.82
2019-04-30T10:48:54.959Z,1015.79
2019-04-30T10:50:49.223Z,1015.85
2019-04-30T10:51:48.202Z,1015.81
2019-04-30T10:53:41.442Z,1015.81
2019-04-30T10:54:41.471Z,1015.85
2019-04-30T10:56:34.708Z,1015.87
2019-04-30T10:57:34.738Z,1015.83
2019-04-30T10:59:27.945Z,1015.77
2019-04-30T11:00:28.656Z,1015.76
2019-04-30T11:02:21.141Z,1015.75
2019-04-30T11:03:23.094Z,1015.71
2019-04-30T11:05:14.398Z,1015.72
2019-04-30T11:06:14.417Z,1015.71
2019-04-30T11:08:07.920Z,1015.74
2019-04-30T11:09:07.636Z,1015.71
2019-04-30T11:11:00.857Z,1015.74
2019-04-30T11:12:03.037Z,1015.76
2019-04-30T11:13:54.051Z,1015.67
2019-04-30T11:14:54.066Z,1015.66
2019-04-30T11:16:49.076Z,1015.64
2019-04-30T11:17:49.481Z,1015.64
2019-04-30T11:19:40.693Z,1015.63
2019-04-30T11:20:40.637Z,1015.59
2019-04-30T11:22:33.996Z,1015.60
2019-04-30T11:23:33.889Z,1015.59
2019-04-30T11:25:27.749Z,1015.56
2019-04-30T11:26:31.132Z,1015.55
2019-04-30T11:28:20.760Z,1015.56
2019-04-30T11:29:22.926Z,1015.52
2019-04-30T11:31:13.565Z,1015.53
2019-04-30T11:32:13.628Z,1015.51
2019-04-30T11:34:06.590Z,1015.51
2019-04-30T11:35:06.612Z,1015.45
2019-04-30T11:36:59.807Z,1015.36
2019-04-30T11:37:59.831Z,1015.32
2019-04-30T11:39:53.048Z,1015.36
2019-04-30T11:40:53.060Z,1015.36
2019-04-30T11:42:46.241Z,1015.35
2019-04-30T11:43:46.254Z,1015.32
2019-04-30T11:45:39.471Z,1015.27
2019-04-30T11:46:39.489Z,1015.24
2019-04-30T11:48:32.699Z,1015.31
2019-04-30T11:49:32.706Z,1015.23
2019-04-30T11:51:27.046Z,1015.20
2019-04-30T11:52:25.933Z,1015.19
2019-04-30T11:54:19.109Z,1015.17
2019-04-30T11:55:19.384Z,1015.12
2019-04-30T11:57:12.331Z,1015.13
2019-04-30T11:58:21.348Z,1015.12
2019-04-30T12:00:05.649Z,1015.17
2019-04-30T12:01:05.542Z,1015.20
2019-04-30T12:02:59.333Z,1015.14
2019-04-30T12:03:59.802Z,1015.12
2019-04-30T12:05:51.954Z,1015.10
2019-04-30T12:06:51.973Z,1015.05
2019-04-30T12:08:45.164Z,1015.03
2019-04-30T12:09:45.178Z,1015.02
2019-04-30T12:11:38.380Z,1014.95
2019-04-30T12:12:38.849Z,1014.98
2019-04-30T12:14:31.587Z,1014.96
2019-04-30T12:15:31.598Z,1014.94
2019-04-30T12:17:24.782Z,1014.92
2019-04-30T12:18:24.807Z,1014.90
2019-04-30T12:20:29.696Z,1014.87
2019-04-30T12:21:29.699Z,1014.88
2019-04-30T12:23:22.874Z,1014.82
2019-04-30T12:24:22.909Z,1014.82
2019-04-30T12:26:16.102Z,1014.77
2019-04-30T12:27:16.118Z,1014.77
2019-04-30T12:29:11.224Z,1014.75
2019-04-30T12:30:09.297Z,1014.75
2019-04-30T12:32:02.485Z,1014.75
2019-04-30T12:33:02.482Z,1014.72
2019-04-30T12:34:55.696Z,1014.78
2019-04-30T12:35:55.703Z,1014.78
2019-04-30T12:37:52.073Z,1014.76
2019-04-30T12:38:48.874Z,1014.75
2019-04-30T12:40:42.125Z,1014.76
2019-04-30T12:41:42.142Z,1014.77
2019-04-30T12:43:35.299Z,1014.77
2019-04-30T12:44:35.346Z,1014.78
2019-04-30T12:46:43.886Z,1014.80
2019-04-30T12:47:43.890Z,1014.81
2019-04-30T12:49:37.052Z,1014.72
2019-04-30T12:50:39.100Z,1014.75
2019-04-30T12:52:30.241Z,1014.76
2019-04-30T12:53:30.244Z,1014.74
2019-04-30T12:55:23.487Z,1014.70
2019-04-30T12:56:27.122Z,1014.66
2019-04-30T12:58:16.746Z,1014.70
2019-04-30T12:59:16.746Z,1014.70
2019-04-30T13:01:09.923Z,1014.67
2019-04-30T13:02:09.931Z,1014.69
2019-04-30T13:04:14.800Z,1014.58
2019-04-30T13:05:14.809Z,1014.66
2019-04-30T13:07:10.240Z,1014.62
2019-04-30T13:08:09.787Z,1014.60
2019-04-30T13:10:02.492Z,1014.60
2019-04-30T13:11:01.591Z,1014.59
2019-04-30T13:12:54.869Z,1014.55
2019-04-30T13:13:54.975Z,1014.57
2019-04-30T13:15:47.669Z,1014.54
2019-04-30T13:16:49.043Z,1014.53
2019-04-30T13:18:40.847Z,1014.50
2019-04-30T13:19:40.883Z,1014.51
2019-04-30T13:21:34.110Z,1014.52
2019-04-30T13:22:34.112Z,1014.45
2019-04-30T13:24:31.035Z,1014.44
2019-04-30T13:25:35.157Z,1014.43
2019-04-30T13:27:22.575Z,1014.41
2019-04-30T13:28:21.571Z,1014.43
2019-04-30T13:30:14.798Z,1014.41
2019-04-30T13:31:14.812Z,1014.39
2019-04-30T13:33:09.452Z,1014.32
2019-04-30T13:34:08.516Z,1014.31
2019-04-30T13:36:01.283Z,1014.30
2019-04-30T13:37:01.317Z,1014.28
2019-04-30T13:38:54.453Z,1014.23
2019-04-30T13:39:54.471Z,1014.26
2019-04-30T13:41:50.709Z,1014.31
2019-04-30T13:42:48.801Z,1014.25
2019-04-30T13:44:40.867Z,1014.25
2019-04-30T13:45:40.875Z,1014.25
2019-04-30T13:47:34.074Z,1014.22
2019-04-30T13:48:34.070Z,1014.23
2019-04-30T13:50:29.094Z,1014.29
2019-04-30T13:51:27.262Z,1014.25
2019-04-30T13:53:20.504Z,1014.30
2019-04-30T13:54:20.514Z,1014.29
2019-04-30T13:56:13.754Z,1014.21
2019-04-30T13:57:13.752Z,1014.22
2019-04-30T13:59:06.948Z,1014.22
2019-04-30T14:00:08.592Z,1014.26
2019-04-30T14:02:00.148Z,1014.17
2019-04-30T14:03:00.900Z,1014.17
2019-04-30T14:04:53.356Z,1014.17
2019-04-30T14:05:53.337Z,1014.18
2019-04-30T14:07:46.500Z,1014.14
2019-04-30T14:08:46.530Z,1014.13
2019-04-30T14:10:39.750Z,1014.16
2019-04-30T14:11:39.762Z,1014.16
2019-04-30T14:13:32.918Z,1014.13
2019-04-30T14:14:32.926Z,1014.16
2019-04-30T14:16:26.116Z,1014.15
2019-04-30T14:17:26.115Z,1014.10
2019-04-30T14:19:19.627Z,1014.12
2019-04-30T14:20:19.343Z,1014.13
2019-04-30T14:22:12.519Z,1014.10
2019-04-30T14:23:12.546Z,1014.10
2019-04-30T14:25:05.757Z,1014.06
2019-04-30T14:26:05.789Z,1014.06
2019-04-30T14:27:59.346Z,1014.04
2019-04-30T14:28:58.961Z,1014.05
2019-04-30T14:30:52.156Z,1014.07
2019-04-30T14:31:52.160Z,1014.06
2019-04-30T14:33:45.363Z,1014.10
2019-04-30T14:34:45.381Z,1014.11
2019-04-30T14:36:39.180Z,1014.07
2019-04-30T14:37:38.995Z,1014.03
2019-04-30T14:39:31.988Z,1014.07
2019-04-30T14:40:32.288Z,1014.07
2019-04-30T14:42:25.819Z,1014.06
2019-04-30T14:43:25.498Z,1014.06
2019-04-30T14:45:18.593Z,1014.08
2019-04-30T14:46:20.691Z,1014.08
2019-04-30T14:48:12.048Z,1014.11
2019-04-30T14:49:14.773Z,1014.11
2019-04-30T14:51:04.607Z,1014.11
2019-04-30T14:52:04.645Z,1014.16
2019-04-30T14:53:58.872Z,1014.12
2019-04-30T14:54:58.796Z,1014.05
2019-04-30T14:56:51.021Z,1014.06
2019-04-30T14:57:51.336Z,1014.10
2019-04-30T14:59:44.182Z,1014.08
2019-04-30T15:00:44.202Z,1014.05
2019-04-30T15:02:37.394Z,1014.04
2019-04-30T15:03:39.372Z,1014.07
2019-04-30T15:05:39.141Z,1014.05
2019-04-30T15:06:30.735Z,1014.08
2019-04-30T15:08:24.019Z,1014.10
2019-04-30T15:09:24.020Z,1014.07
2019-04-30T15:11:18.986Z,1014.10
2019-04-30T15:12:17.243Z,1014.08
2019-04-30T15:14:10.393Z,1014.12
2019-04-30T15:15:10.421Z,1014.06
2019-04-30T15:17:03.575Z,1014.02
2019-04-30T15:18:03.608Z,1014.04
2019-04-30T15:19:58.630Z,1014.01
2019-04-30T15:20:56.774Z,1014.00
2019-04-30T15:22:49.951Z,1013.98
2019-04-30T15:23:58.590Z,1013.98
2019-04-30T15:25:43.209Z,1014.01
2019-04-30T15:26:43.207Z,1013.97
2019-04-30T15:28:36.377Z,1013.95
2019-04-30T15:29:36.386Z,1013.95
2019-04-30T15:31:29.845Z,1013.91
2019-04-30T15:32:29.640Z,1013.90
2019-04-30T15:34:22.837Z,1013.94
2019-04-30T15:35:22.844Z,1013.90
2019-04-30T15:37:21.743Z,1013.91
2019-04-30T15:38:16.058Z,1013.91
2019-04-30T15:40:09.209Z,1013.93
2019-04-30T15:41:09.218Z,1013.94
2019-04-30T15:43:02.530Z,1013.95
2019-04-30T15:44:02.410Z,1013.88
2019-04-30T15:45:57.298Z,1013.91
2019-04-30T15:46:55.846Z,1013.90
2019-04-30T15:48:48.950Z,1013.89
2019-04-30T15:49:48.963Z,1013.87
2019-04-30T15:51:42.164Z,1013.87
2019-04-30T15:52:42.159Z,1013.88
2019-04-30T15:54:35.350Z,1013.92
2019-04-30T15:55:35.364Z,1013.91
2019-04-30T15:57:29.546Z,1013.91
2019-04-30T15:58:28.956Z,1013.88
2019-04-30T16:00:21.731Z,1013.86
2019-04-30T16:01:21.750Z,1013.87
2019-04-30T16:03:14.946Z,1013.90
2019-04-30T16:04:14.956Z,1013.86
2019-04-30T16:06:08.349Z,1013.86
2019-04-30T16:07:08.544Z,1013.85
2019-04-30T16:09:01.372Z,1013.81
2019-04-30T16:10:01.371Z,1013.82
2019-04-30T16:11:54.537Z,1013.79
2019-04-30T16:12:54.532Z,1013.78
2019-04-30T16:14:47.718Z,1013.80
2019-04-30T16:15:49.187Z,1013.79
2019-04-30T16:17:40.936Z,1013.79
2019-04-30T16:18:40.955Z,1013.74
2019-04-30T16:20:34.114Z,1013.76
2019-04-30T16:21:34.137Z,1013.70
2019-04-30T16:23:27.324Z,1013.71
2019-04-30T16:24:28.700Z,1013.71
2019-04-30T16:26:20.549Z,1013.65
2019-04-30T16:27:20.562Z,1013.67
2019-04-30T16:29:13.745Z,1013.66
2019-04-30T16:30:13.742Z,1013.66
2019-04-30T16:32:09.131Z,1013.58
2019-04-30T16:33:06.950Z,1013.63
2019-04-30T16:35:00.159Z,1013.61
2019-04-30T16:37:53.381Z,1013.57
2019-04-30T16:38:53.375Z,1013.54
2019-04-30T16:40:48.404Z,1013.57
2019-04-30T16:41:46.605Z,1013.55
2019-04-30T16:43:39.754Z,1013.56
2019-04-30T16:44:39.762Z,1013.53
2019-04-30T16:46:32.911Z,1013.53
2019-04-30T16:47:32.931Z,1013.50
2019-04-30T16:49:26.156Z,1013.55
2019-04-30T16:50:26.235Z,1013.48
2019-04-30T16:52:19.346Z,1013.50
2019-04-30T16:53:19.354Z,1013.50
2019-04-30T16:55:12.529Z,1013.49
2019-04-30T16:56:12.553Z,1013.52
2019-04-30T16:58:05.765Z,1013.53
2019-04-30T16:59:05.753Z,1013.48
2019-04-30T17:00:59.391Z,1013.50
2019-04-30T17:02:00.478Z,1013.48
2019-04-30T17:03:52.111Z,1013.46
2019-04-30T17:04:52.131Z,1013.53
2019-04-30T17:06:45.376Z,1013.49
2019-04-30T17:07:45.386Z,1013.51
2019-04-30T17:09:52.876Z,1013.47
2019-04-30T17:10:52.897Z,1013.48
2019-04-30T17:12:46.610Z,1013.48
2019-04-30T17:13:46.089Z,1013.47
2019-04-30T17:15:53.649Z,1013.48
2019-04-30T17:16:53.637Z,1013.44
2019-04-30T17:18:49.259Z,1013.45
2019-04-30T17:19:46.854Z,1013.46
2019-04-30T17:21:40.017Z,1013.46
2019-04-30T17:22:40.036Z,1013.45
2019-04-30T17:24:33.304Z,1013.43
2019-04-30T17:25:33.226Z,1013.46
2019-04-30T17:27:26.373Z,1013.46
2019-04-30T17:28:28.482Z,1013.44
2019-04-30T17:30:19.670Z,1013.43
2019-04-30T17:31:19.641Z,1013.44
2019-04-30T17:33:12.880Z,1013.45
2019-04-30T17:34:12.886Z,1013.48
2019-04-30T17:36:06.058Z,1013.44